createdAt,value
2019-05-11T00:02:18.460Z,24.02
2019-05-11T00:04:45.722Z,25.40
2019-05-11T00:07:15.234Z,25.55
2019-05-11T00:09:57.100Z,25.02
2019-05-11T00:12:11.362Z,26.95
2019-05-11T00:14:38.734Z,25.30
2019-05-11T00:17:07.334Z,24.75
2019-05-11T00:19:34.757Z,24.65
2019-05-11T00:22:07.753Z,26.68
2019-05-11T00:24:36.899Z,26.27
2019-05-11T00:27:04.299Z,27.85
2019-05-11T00:29:31.467Z,26.33
2019-05-11T00:31:58.529Z,28.05
2019-05-11T00:34:25.843Z,27.15
2019-05-11T00:36:52.985Z,26.55
2019-05-11T00:39:19.854Z,27.17
2019-05-11T00:41:48.921Z,25.92
2019-05-11T00:44:17.732Z,28.00
2019-05-11T00:46:46.790Z,26.73
2019-05-11T00:49:14.469Z,26.35
2019-05-11T00:51:41.767Z,29.10
2019-05-11T00:54:09.150Z,29.45
2019-05-11T00:56:36.222Z,26.65
2019-05-11T00:59:04.964Z,28.42
2019-05-11T01:01:32.386Z,28.52
2019-05-11T01:03:59.200Z,25.95
2019-05-11T01:06:27.365Z,28.15
2019-05-11T01:09:01.292Z,27.07
2019-05-11T01:11:30.519Z,29.15
2019-05-11T01:13:57.766Z,28.62
2019-05-11T01:16:24.844Z,29.92
2019-05-11T01:18:52.592Z,29.23
2019-05-11T01:21:19.955Z,28.47
2019-05-11T01:23:47.047Z,31.87
2019-05-11T01:26:14.430Z,30.17
2019-05-11T01:28:41.380Z,29.23
2019-05-11T01:31:08.603Z,29.48
2019-05-11T01:33:45.227Z,29.98
2019-05-11T01:36:12.182Z,30.88
2019-05-11T01:38:39.208Z,30.82
2019-05-11T01:41:06.013Z,28.80
2019-05-11T01:43:33.155Z,30.77
2019-05-11T01:46:00.767Z,32.20
2019-05-11T01:48:29.921Z,34.05
2019-05-11T01:51:04.281Z,31.00
2019-05-11T01:53:30.875Z,32.20
2019-05-11T01:55:57.743Z,33.40
2019-05-11T01:58:24.987Z,32.65
2019-05-11T02:00:52.093Z,32.98
2019-05-11T02:03:23.182Z,32.35
2019-05-11T02:05:51.800Z,33.20
2019-05-11T02:08:20.791Z,31.82
2019-05-11T02:10:50.924Z,33.75
2019-05-11T02:13:19.936Z,34.65
2019-05-11T02:16:06.417Z,33.58
2019-05-11T02:18:34.137Z,33.60
2019-05-11T02:21:01.046Z,34.90
2019-05-11T02:23:27.910Z,34.95
2019-05-11T02:25:55.087Z,36.83
2019-05-11T02:28:22.530Z,37.13
2019-05-11T02:30:51.965Z,35.98
2019-05-11T02:33:37.861Z,37.40
2019-05-11T02:36:05.038Z,36.08
2019-05-11T02:38:34.859Z,38.55
2019-05-11T02:41:02.194Z,40.17
2019-05-11T02:43:31.157Z,37.10
2019-05-11T02:46:20.016Z,35.33
2019-05-11T02:48:47.083Z,34.85
2019-05-11T02:51:22.462Z,35.43
2019-05-11T02:53:49.400Z,34.67
2019-05-11T02:56:18.337Z,35.98
2019-05-11T02:58:45.588Z,34.98
2019-05-11T03:01:12.630Z,36.13
2019-05-11T03:03:41.571Z,36.58
2019-05-11T03:06:08.596Z,39.42
2019-05-11T03:08:37.471Z,39.35
2019-05-11T03:11:09.864Z,37.28
2019-05-11T03:13:37.209Z,37.65
2019-05-11T03:16:08.762Z,35.90
2019-05-11T03:18:39.403Z,39.42
2019-05-11T03:24:16.286Z,39.15
2019-05-11T03:26:57.343Z,37.17
2019-05-11T03:29:24.318Z,39.18
2019-05-11T03:31:51.415Z,39.03
2019-05-11T03:34:18.832Z,40.52
2019-05-11T03:36:46.100Z,41.55
2019-05-11T03:39:23.137Z,39.23
2019-05-11T03:42:13.851Z,39.10
2019-05-11T03:44:48.849Z,40.40
2019-05-11T03:47:17.955Z,40.35
2019-05-11T03:49:45.208Z,39.58
2019-05-11T03:52:12.211Z,40.60
2019-05-11T03:54:39.259Z,40.52
2019-05-11T03:57:06.426Z,39.33
2019-05-11T03:59:33.835Z,40.03
2019-05-11T04:02:00.624Z,37.83
2019-05-11T04:04:27.486Z,40.03
2019-05-11T04:06:54.651Z,40.45
2019-05-11T04:09:21.259Z,40.80
2019-05-11T04:11:47.876Z,38.90
2019-05-11T04:14:19.711Z,40.90
2019-05-11T04:16:57.675Z,40.08
2019-05-11T04:19:25.017Z,42.93
2019-05-11T04:21:52.208Z,39.35
2019-05-11T04:24:19.114Z,39.03
2019-05-11T04:26:46.237Z,37.98
2019-05-11T04:29:13.036Z,38.48
2019-05-11T04:31:39.931Z,37.58
2019-05-11T04:34:07.026Z,37.58
2019-05-11T04:36:37.583Z,35.28
2019-05-11T04:39:06.031Z,35.45
2019-05-11T04:41:32.930Z,34.60
2019-05-11T04:43:59.840Z,33.95
2019-05-11T04:46:26.750Z,32.38
2019-05-11T04:48:53.535Z,33.08
2019-05-11T04:51:20.894Z,32.50
2019-05-11T04:53:47.597Z,30.82
2019-05-11T04:56:16.137Z,30.23
2019-05-11T04:58:42.822Z,32.28
2019-05-11T05:01:09.620Z,28.60
2019-05-11T05:03:40.771Z,29.55
2019-05-11T05:06:22.333Z,29.30
2019-05-11T05:08:33.829Z,29.75
2019-05-11T05:11:01.732Z,27.45
2019-05-11T05:13:29.525Z,26.27
2019-05-11T05:15:57.310Z,25.72
2019-05-11T05:18:24.318Z,26.25
2019-05-11T05:20:51.122Z,25.62
2019-05-11T05:23:17.925Z,24.60
2019-05-11T05:25:45.001Z,22.48
2019-05-11T05:28:11.900Z,21.93
2019-05-11T05:30:38.670Z,22.10
2019-05-11T05:33:05.356Z,23.22
2019-05-11T05:35:32.473Z,23.77
2019-05-11T05:37:59.435Z,22.95
2019-05-11T05:40:26.755Z,23.73
2019-05-11T05:42:54.002Z,23.18
2019-05-11T05:45:20.978Z,32.85
2019-05-11T05:47:47.746Z,25.50
2019-05-11T05:50:14.591Z,25.35
2019-05-11T05:52:41.398Z,23.02
2019-05-11T05:55:08.595Z,20.50
2019-05-11T05:57:35.461Z,19.95
2019-05-11T06:00:02.991Z,19.00
2019-05-11T06:02:29.777Z,20.60
2019-05-11T06:04:56.467Z,19.32
2019-05-11T06:07:23.397Z,19.02
2019-05-11T06:09:50.496Z,18.48
2019-05-11T06:12:17.359Z,18.75
2019-05-11T06:14:43.995Z,19.07
2019-05-11T06:17:10.685Z,18.60
2019-05-11T06:19:37.435Z,18.95
2019-05-11T06:22:04.505Z,17.70
2019-05-11T06:24:31.362Z,17.25
2019-05-11T06:26:58.687Z,18.75
2019-05-11T06:29:26.521Z,18.98
2019-05-11T06:31:53.726Z,19.50
2019-05-11T06:34:20.927Z,19.02
2019-05-11T06:36:48.039Z,17.85
2019-05-11T06:39:15.083Z,18.55
2019-05-11T06:41:42.407Z,19.25
2019-05-11T06:44:09.817Z,19.40
2019-05-11T06:46:37.243Z,18.73
2019-05-11T06:49:08.302Z,18.25
2019-05-11T06:51:35.606Z,18.62
2019-05-11T06:54:05.666Z,18.77
2019-05-11T06:56:34.161Z,17.50
2019-05-11T06:59:04.180Z,18.10
2019-05-11T07:01:32.071Z,18.77
2019-05-11T07:04:01.625Z,18.80
2019-05-11T07:06:30.634Z,19.57
2019-05-11T07:08:57.412Z,18.90
2019-05-11T07:11:26.628Z,21.87
2019-05-11T07:13:54.348Z,20.37
2019-05-11T07:16:23.572Z,19.57
2019-05-11T07:19:14.616Z,18.60
2019-05-11T07:21:45.135Z,20.65
2019-05-11T07:27:04.478Z,25.08
2019-05-11T07:29:34.988Z,20.17
2019-05-11T07:32:19.684Z,19.90
2019-05-11T07:34:38.390Z,19.30
2019-05-11T07:37:19.140Z,19.32
2019-05-11T07:39:48.707Z,18.25
2019-05-11T07:42:18.179Z,17.62
2019-05-11T07:44:47.960Z,18.23
2019-05-11T07:47:14.764Z,17.32
2019-05-11T07:49:42.062Z,17.32
2019-05-11T07:52:09.594Z,17.92
2019-05-11T07:54:38.567Z,15.32
2019-05-11T07:57:07.749Z,14.93
2019-05-11T07:59:48.636Z,14.95
2019-05-11T08:02:17.803Z,14.58
2019-05-11T08:04:44.806Z,15.18
2019-05-11T08:07:17.932Z,14.78
2019-05-11T08:09:44.764Z,14.75
2019-05-11T08:12:12.123Z,14.93
2019-05-11T08:14:55.355Z,13.80
2019-05-11T08:17:08.722Z,14.20
2019-05-11T08:19:38.364Z,14.05
2019-05-11T08:22:12.676Z,16.93
2019-05-11T08:24:39.510Z,17.07
2019-05-11T08:27:08.243Z,16.80
2019-05-11T08:29:35.175Z,13.78
2019-05-11T08:32:02.131Z,13.03
2019-05-11T08:34:28.799Z,13.50
2019-05-11T08:36:58.203Z,12.65
2019-05-11T08:39:24.512Z,12.85
2019-05-11T08:41:51.166Z,12.93
2019-05-11T08:44:18.887Z,12.55
2019-05-11T08:46:47.869Z,12.63
2019-05-11T08:49:15.906Z,11.85
2019-05-11T08:51:44.686Z,10.93
2019-05-11T08:54:12.318Z,12.10
2019-05-11T08:56:39.360Z,12.95
2019-05-11T08:59:07.986Z,13.93
2019-05-11T09:01:35.894Z,13.60
2019-05-11T09:04:02.927Z,12.25
2019-05-11T09:06:30.200Z,12.73
2019-05-11T09:08:58.368Z,13.60
2019-05-11T09:11:28.189Z,12.43
2019-05-11T09:13:57.705Z,13.60
2019-05-11T09:16:23.787Z,11.78
2019-05-11T09:18:50.970Z,12.70
2019-05-11T09:21:19.006Z,11.57
2019-05-11T09:23:48.378Z,12.20
2019-05-11T09:26:15.290Z,10.98
2019-05-11T09:28:44.286Z,10.40
2019-05-11T09:31:12.154Z,11.68
2019-05-11T09:33:38.872Z,10.60
2019-05-11T09:36:05.871Z,11.75
2019-05-11T09:38:32.449Z,9.80
2019-05-11T09:41:01.067Z,9.53
2019-05-11T09:43:28.392Z,10.50
2019-05-11T09:45:55.211Z,9.20
2019-05-11T09:48:21.897Z,9.55
2019-05-11T09:50:49.552Z,8.90
2019-05-11T09:53:17.728Z,9.45
2019-05-11T09:55:44.893Z,10.08
2019-05-11T09:58:11.725Z,7.42
2019-05-11T10:00:38.981Z,7.72
2019-05-11T10:03:08.047Z,8.35
2019-05-11T10:05:34.308Z,8.00
2019-05-11T10:08:00.935Z,8.83
2019-05-11T10:10:28.981Z,8.53
2019-05-11T10:12:59.064Z,8.28
2019-05-11T10:15:27.963Z,7.27
2019-05-11T10:17:54.762Z,7.12
2019-05-11T10:20:22.631Z,7.08
2019-05-11T10:22:50.391Z,8.05
2019-05-11T10:25:19.534Z,8.15
2019-05-11T10:27:48.214Z,7.28
2019-05-11T10:30:15.348Z,6.53
2019-05-11T10:32:42.430Z,7.47
2019-05-11T10:35:09.399Z,7.67
2019-05-11T10:37:38.701Z,6.72
2019-05-11T10:40:09.519Z,6.08
2019-05-11T10:42:45.083Z,6.30
2019-05-11T10:45:14.795Z,5.83
2019-05-11T10:47:41.660Z,5.67
2019-05-11T10:50:08.841Z,6.12
2019-05-11T10:52:37.696Z,6.10
2019-05-11T10:55:04.437Z,5.00
2019-05-11T10:57:31.235Z,5.45
2019-05-11T10:59:59.235Z,5.60
2019-05-11T11:02:27.755Z,5.12
2019-05-11T11:04:54.538Z,5.08
2019-05-11T11:07:22.227Z,4.37
2019-05-11T11:09:49.206Z,4.03
2019-05-11T11:12:16.017Z,4.00
2019-05-11T11:14:42.417Z,3.67
2019-05-11T11:17:09.192Z,3.60
2019-05-11T11:19:38.155Z,3.45
2019-05-11T11:22:30.318Z,3.35
2019-05-11T11:24:33.412Z,3.60
2019-05-11T11:27:01.080Z,3.80
2019-05-11T11:29:28.807Z,3.70
2019-05-11T11:31:55.510Z,3.55
2019-05-11T11:34:22.038Z,4.03
2019-05-11T11:36:49.846Z,3.42
2019-05-11T11:39:18.547Z,6.25
2019-05-11T11:41:44.766Z,3.37
2019-05-11T11:44:11.428Z,4.10
2019-05-11T11:46:50.874Z,3.67
2019-05-11T11:49:08.273Z,2.87
2019-05-11T11:51:34.784Z,4.80
2019-05-11T11:54:01.249Z,6.40
2019-05-11T11:56:28.419Z,3.65
2019-05-11T11:58:55.389Z,3.60
2019-05-11T12:01:21.858Z,4.97
2019-05-11T12:03:49.049Z,3.47
2019-05-11T12:06:18.518Z,4.22
2019-05-11T12:08:45.436Z,4.72
2019-05-11T12:11:11.886Z,4.65
2019-05-11T12:13:38.603Z,5.72
2019-05-11T12:16:07.271Z,5.80
2019-05-11T12:18:34.496Z,5.08
2019-05-11T12:21:01.151Z,3.77
2019-05-11T12:23:28.496Z,3.33
2019-05-11T12:25:55.265Z,3.80
2019-05-11T12:28:21.826Z,4.70
2019-05-11T12:30:50.672Z,4.47
2019-05-11T12:33:18.729Z,4.10
2019-05-11T12:35:45.594Z,4.45
2019-05-11T12:38:12.304Z,5.00
2019-05-11T12:40:39.037Z,4.12
2019-05-11T12:43:07.523Z,5.00
2019-05-11T12:45:34.332Z,4.78
2019-05-11T12:48:01.598Z,4.90
2019-05-11T12:50:28.751Z,4.97
2019-05-11T12:52:56.663Z,4.15
2019-05-11T12:55:23.962Z,3.33
2019-05-11T12:57:50.480Z,3.65
2019-05-11T13:00:21.483Z,3.83
2019-05-11T13:02:53.645Z,8.80
2019-05-11T13:05:22.661Z,5.47
2019-05-11T13:07:52.647Z,3.95
2019-05-11T13:10:25.172Z,3.00
2019-05-11T13:12:52.187Z,3.25
2019-05-11T13:15:19.016Z,4.67
2019-05-11T13:17:45.644Z,4.30
2019-05-11T13:20:13.119Z,4.40
2019-05-11T13:22:40.199Z,4.67
2019-05-11T13:25:08.619Z,4.33
2019-05-11T13:27:35.783Z,3.58
2019-05-11T13:30:05.232Z,3.80
2019-05-11T13:32:32.029Z,4.53
2019-05-11T13:34:58.727Z,3.60
2019-05-11T13:37:28.140Z,3.50
2019-05-11T13:39:55.040Z,4.40
2019-05-11T13:42:23.303Z,4.75
2019-05-11T13:44:49.905Z,4.78
2019-05-11T13:47:18.007Z,4.10
2019-05-11T13:49:44.941Z,3.77
2019-05-11T13:52:11.648Z,4.12
2019-05-11T13:54:38.136Z,4.03
2019-05-11T13:57:04.922Z,4.30
2019-05-11T13:59:32.029Z,4.60
2019-05-11T14:01:58.778Z,4.00
2019-05-11T14:04:25.311Z,4.35
2019-05-11T14:06:52.164Z,4.12
2019-05-11T14:09:18.731Z,3.83
2019-05-11T14:11:47.355Z,3.95
2019-05-11T14:14:13.785Z,4.17
2019-05-11T14:16:40.390Z,4.12
2019-05-11T14:19:08.872Z,4.03
2019-05-11T14:21:35.670Z,3.25
2019-05-11T14:24:02.486Z,3.70
2019-05-11T14:26:29.277Z,3.58
2019-05-11T14:28:57.771Z,4.00
2019-05-11T14:31:24.583Z,3.87
2019-05-11T14:33:51.395Z,3.47
2019-05-11T14:36:18.538Z,3.80
2019-05-11T14:38:45.795Z,3.30
2019-05-11T14:41:12.519Z,3.52
2019-05-11T14:43:39.213Z,3.30
2019-05-11T14:46:08.543Z,3.10
2019-05-11T14:48:35.451Z,3.10
2019-05-11T14:51:02.139Z,3.00
2019-05-11T14:53:28.983Z,3.17
2019-05-11T14:55:55.770Z,2.83
2019-05-11T14:58:25.331Z,3.00
2019-05-11T15:00:52.064Z,4.25
2019-05-11T15:03:20.552Z,4.30
2019-05-11T15:05:49.462Z,3.60
2019-05-11T15:08:18.049Z,3.52
2019-05-11T15:10:45.196Z,3.72
2019-05-11T15:13:12.223Z,3.87
2019-05-11T15:15:39.562Z,3.83
2019-05-11T15:18:08.414Z,3.90
2019-05-11T15:20:35.034Z,3.90
2019-05-11T15:23:03.704Z,3.67
2019-05-11T15:25:30.498Z,3.67
2019-05-11T15:27:58.463Z,3.47
2019-05-11T15:30:25.563Z,3.10
2019-05-11T15:32:52.516Z,3.50
2019-05-11T15:35:19.232Z,3.10
2019-05-11T15:37:47.921Z,3.70
2019-05-11T15:40:18.657Z,3.10
2019-05-11T15:42:48.337Z,3.00
2019-05-11T15:45:14.850Z,3.33
2019-05-11T15:47:42.911Z,3.10
2019-05-11T15:50:12.448Z,3.30
2019-05-11T15:52:40.120Z,3.20
2019-05-11T15:55:08.150Z,3.22
2019-05-11T15:57:35.330Z,3.17
2019-05-11T16:00:03.755Z,3.47
2019-05-11T16:02:30.837Z,3.42
2019-05-11T16:04:58.750Z,3.58
2019-05-11T16:07:28.030Z,2.90
2019-05-11T16:09:54.240Z,3.15
2019-05-11T16:12:21.298Z,3.33
2019-05-11T16:14:49.660Z,3.05
2019-05-11T16:17:16.611Z,3.00
2019-05-11T16:19:44.131Z,3.37
2019-05-11T16:22:12.199Z,3.47
2019-05-11T16:24:40.055Z,3.60
2019-05-11T16:27:08.784Z,4.25
2019-05-11T16:29:38.303Z,4.20
2019-05-11T16:32:21.589Z,3.85
2019-05-11T16:34:49.665Z,3.47
2019-05-11T16:37:18.395Z,3.17
2019-05-11T16:39:47.405Z,3.40
2019-05-11T16:42:14.223Z,3.12
2019-05-11T16:44:41.575Z,3.20
2019-05-11T16:47:08.563Z,3.02
2019-05-11T16:49:38.466Z,3.12
2019-05-11T16:52:05.271Z,2.92
2019-05-11T16:54:32.385Z,3.00
2019-05-11T16:56:59.549Z,2.83
2019-05-11T16:59:27.814Z,2.70
2019-05-11T17:01:55.086Z,2.85
2019-05-11T17:04:22.356Z,2.40
2019-05-11T17:06:49.339Z,2.72
2019-05-11T17:09:18.035Z,2.90
2019-05-11T17:11:44.874Z,2.85
2019-05-11T17:14:11.711Z,2.70
2019-05-11T17:16:41.348Z,2.58
2019-05-11T17:19:13.822Z,3.12
2019-05-11T17:21:41.200Z,2.77
2019-05-11T17:24:10.613Z,2.58
2019-05-11T17:26:38.676Z,2.83
2019-05-11T17:29:07.019Z,2.12
2019-05-11T17:31:34.152Z,2.35
2019-05-11T17:34:02.927Z,2.60
2019-05-11T17:36:30.761Z,2.40
2019-05-11T17:38:58.965Z,2.45
2019-05-11T17:41:43.888Z,2.60
2019-05-11T17:44:19.006Z,2.62
2019-05-11T17:46:45.948Z,2.50
2019-05-11T17:49:12.860Z,3.12
2019-05-11T17:51:39.644Z,2.80
2019-05-11T17:54:07.912Z,2.52
2019-05-11T17:56:38.278Z,2.58
2019-05-11T17:59:04.943Z,2.20
2019-05-11T18:01:31.867Z,2.40
2019-05-11T18:03:58.952Z,2.67
2019-05-11T18:06:26.032Z,2.90
2019-05-11T18:08:53.563Z,1.87
2019-05-11T18:11:20.699Z,2.10
2019-05-11T18:13:48.288Z,2.52
2019-05-11T18:16:15.426Z,2.35
2019-05-11T18:18:45.136Z,2.30
2019-05-11T18:21:12.267Z,2.10
2019-05-11T18:23:39.116Z,2.37
2019-05-11T18:26:08.641Z,2.20
2019-05-11T18:28:37.801Z,2.20
2019-05-11T18:31:04.929Z,2.25
2019-05-11T18:33:32.224Z,2.00
2019-05-11T18:35:58.921Z,2.62
2019-05-11T18:38:27.608Z,2.67
2019-05-11T18:40:58.041Z,2.17
2019-05-11T18:43:27.764Z,1.92
2019-05-11T18:45:54.323Z,2.20
2019-05-11T18:48:21.470Z,2.55
2019-05-11T18:50:49.211Z,2.70
2019-05-11T18:53:18.664Z,3.90
2019-05-11T18:55:48.448Z,4.80
2019-05-11T18:58:18.144Z,4.55
2019-05-11T19:00:44.341Z,3.45
2019-05-11T19:03:11.233Z,3.20
2019-05-11T19:05:38.680Z,2.83
2019-05-11T19:08:05.666Z,2.67
2019-05-11T19:10:33.209Z,2.30
2019-05-11T19:13:00.150Z,2.58
2019-05-11T19:15:32.199Z,2.35
2019-05-11T19:18:14.606Z,2.55
2019-05-11T19:20:45.862Z,2.20
2019-05-11T19:23:37.888Z,2.27
2019-05-11T19:26:10.709Z,1.98
2019-05-11T19:28:39.803Z,2.62
2019-05-11T19:31:11.302Z,2.27
2019-05-11T19:33:45.780Z,2.40
2019-05-11T19:36:13.024Z,2.80
2019-05-11T19:38:40.386Z,4.60
2019-05-11T19:41:08.093Z,2.83
2019-05-11T19:43:35.331Z,2.35
2019-05-11T19:46:02.771Z,2.27
2019-05-11T19:48:29.665Z,2.30
2019-05-11T19:51:06.593Z,2.10
2019-05-11T19:53:27.920Z,2.67
2019-05-11T19:55:54.528Z,7.35
2019-05-11T19:58:23.282Z,3.40
2019-05-11T20:00:50.303Z,3.22
2019-05-11T20:03:19.460Z,2.70
2019-05-11T20:05:48.590Z,2.37
2019-05-11T20:08:18.251Z,2.35
2019-05-11T20:13:31.204Z,2.47
2019-05-11T20:15:58.629Z,7.05
2019-05-11T20:18:28.776Z,5.83
2019-05-11T20:20:55.865Z,2.95
2019-05-11T20:23:22.839Z,2.40
2019-05-11T20:26:08.742Z,2.90
2019-05-11T20:28:37.685Z,2.70
2019-05-11T20:31:04.597Z,2.55
2019-05-11T20:33:31.539Z,2.52
2019-05-11T20:35:58.481Z,2.33
2019-05-11T20:38:27.549Z,2.30
2019-05-11T20:40:54.171Z,2.65
2019-05-11T20:43:33.419Z,3.15
2019-05-11T20:46:00.381Z,2.47
2019-05-11T20:48:27.928Z,2.47
2019-05-11T20:50:57.559Z,2.83
2019-05-11T20:53:24.721Z,2.70
2019-05-11T20:56:11.833Z,5.53
2019-05-11T21:01:41.051Z,3.42
2019-05-11T21:04:08.676Z,3.02
2019-05-11T21:09:18.540Z,3.08
2019-05-11T21:11:47.821Z,3.20
2019-05-11T21:14:22.790Z,2.37
2019-05-11T21:16:48.486Z,3.10
2019-05-11T21:19:15.500Z,4.75
2019-05-11T21:21:52.827Z,7.25
2019-05-11T21:24:15.888Z,3.17
2019-05-11T21:26:58.444Z,2.60
2019-05-11T21:29:28.264Z,2.67
2019-05-11T21:31:56.075Z,3.05
2019-05-11T21:34:23.226Z,3.27
2019-05-11T21:36:50.184Z,3.27
2019-05-11T21:39:17.150Z,3.20
2019-05-11T21:41:58.490Z,3.20
2019-05-11T21:44:27.736Z,3.15
2019-05-11T21:46:54.303Z,3.35
2019-05-11T21:49:21.424Z,2.80
2019-05-11T21:52:03.382Z,3.50
2019-05-11T21:54:16.923Z,3.60
2019-05-11T21:56:43.933Z,3.52
2019-05-11T21:59:15.640Z,3.90
2019-05-11T22:01:42.745Z,3.17
2019-05-11T22:04:11.321Z,3.50
2019-05-11T22:06:40.364Z,3.33
2019-05-11T22:09:08.231Z,3.00
2019-05-11T22:11:38.066Z,2.95
2019-05-11T22:14:05.513Z,3.67
2019-05-11T22:16:32.440Z,3.50
2019-05-11T22:18:59.709Z,2.90
2019-05-11T22:21:27.993Z,3.40
2019-05-11T22:23:55.038Z,3.02
2019-05-11T22:26:24.774Z,3.20
2019-05-11T22:28:51.875Z,3.30
2019-05-11T22:31:18.899Z,3.40
2019-05-11T22:33:47.895Z,2.80
2019-05-11T22:36:14.910Z,2.90
2019-05-11T22:38:42.557Z,3.17
2019-05-11T22:41:10.071Z,3.00
2019-05-11T22:43:37.870Z,2.95
2019-05-11T22:46:05.050Z,2.50
2019-05-11T22:48:32.274Z,2.92
2019-05-11T22:50:59.274Z,3.08
2019-05-11T22:53:39.971Z,3.45
2019-05-11T22:55:55.187Z,3.40
2019-05-11T22:58:22.364Z,3.50
2019-05-11T23:00:49.119Z,3.20
2019-05-11T23:03:18.592Z,3.25
2019-05-11T23:05:47.586Z,3.08
2019-05-11T23:08:14.182Z,3.25
2019-05-11T23:10:41.315Z,2.87
2019-05-11T23:13:11.096Z,3.40
2019-05-11T23:15:40.056Z,2.83
2019-05-11T23:18:05.637Z,2.75
2019-05-11T23:20:32.698Z,2.65
2019-05-11T23:23:01.640Z,2.98
2019-05-11T23:25:28.875Z,2.62
2019-05-11T23:27:58.624Z,3.08
2019-05-11T23:30:24.557Z,2.90
2019-05-11T23:32:51.519Z,2.87
2019-05-11T23:35:21.000Z,3.00
2019-05-11T23:37:49.660Z,3.70
2019-05-11T23:40:18.726Z,3.72
2019-05-11T23:42:45.828Z,3.90
2019-05-11T23:45:13.686Z,2.65
2019-05-11T23:47:40.550Z,2.72
2019-05-11T23:50:08.376Z,3.52
2019-05-11T23:52:38.241Z,3.25
2019-05-11T23:55:08.188Z,3.25
2019-05-11T23:57:35.068Z,3.12
